Terminal Aerodrome Forecast
Issued by NWS

Home | Current Version | Previous Version | Text Only | Print | Product List | Glossary On
Versions: 1 2 3 4 5 6 7 8 9 10 11 12 13 14 15 16 17 18 19
035
FTUS46 KSEW 251140
TAFPAE
TAF
KPAE 251140Z 2512/2612 17015KT P6SM VCSH SCT015 SCT030 OVC100
      TEMPO 2512/2514 17015G23KT -SHRA BKN015 OVC030
     FM251400 18010KT 5SM SHRA BKN015 OVC030
     FM251800 21007KT P6SM VCSH BKN028 OVC050
      TEMPO 2518/2522 -SHRA
     FM260000 19005KT P6SM VCSH BKN035 OVC060
     FM260300 15005KT P6SM FEW035 SCT070 BKN200=

USA.gov is the U.S. government's official web portal to all federal, state and local government web resources and services.